createdAt,value
2018-07-06T03:55:54.078Z,75.9
2018-07-06T03:56:14.194Z,75.8
2018-07-06T03:56:34.316Z,76.2
2018-07-06T03:56:54.451Z,75.9
2018-07-06T03:57:14.607Z,76.3
2018-07-06T03:57:34.784Z,76.5
2018-07-06T03:57:54.959Z,76
2018-07-06T03:58:15.140Z,76.1
2018-07-06T03:58:35.316Z,75.9
2018-07-06T03:58:55.472Z,76.2
2018-07-06T04:02:20.163Z,76.2
2018-07-06T04:02:40.318Z,76.8
2018-07-06T04:03:00.467Z,76
2018-07-06T04:03:20.617Z,76.2
2018-07-06T04:03:40.777Z,75.8
2018-07-06T04:04:00.946Z,76
2018-07-06T04:06:40.073Z,76.3
2018-07-06T04:09:14.857Z,76.2
2018-07-06T04:09:35.006Z,75.7
2018-07-06T04:13:03.948Z,75.9
2018-07-06T04:14:59.980Z,76.3
2018-07-06T04:15:20.113Z,75.9
2018-07-06T04:20:03.289Z,76.4
2018-07-06T04:23:09.032Z,76.2
2018-07-06T04:23:29.176Z,76.4
2018-07-06T04:23:49.347Z,76
2018-07-06T04:26:52.016Z,76.5
2018-07-06T04:27:12.163Z,76.3
2018-07-06T04:27:32.322Z,76.5
2018-07-06T04:27:52.481Z,76.9
2018-07-06T04:28:51.441Z,76.7
2018-07-06T04:29:11.587Z,77.1
2018-07-06T04:29:31.743Z,77.1
2018-07-06T04:29:51.901Z,77.2
2018-07-06T04:30:12.066Z,77.4
2018-07-06T04:30:32.232Z,77.3
2018-07-06T04:30:52.384Z,76.7
2018-07-06T04:32:54.026Z,76.5
2018-07-06T04:33:14.193Z,76.8
2018-07-06T04:33:34.338Z,77.4
2018-07-06T04:34:26.781Z,76.9
2018-07-06T04:34:46.948Z,76.9
2018-07-06T04:35:07.105Z,76.9
2018-07-06T04:35:27.273Z,77
2018-07-06T04:35:47.443Z,76.9
2018-07-06T04:36:07.582Z,76.5
2018-07-06T04:36:27.738Z,76.5
2018-07-06T04:36:47.890Z,76.5
2018-07-06T04:37:08.047Z,76.8
2018-07-06T04:37:28.190Z,77
2018-07-06T04:37:48.357Z,77.1
2018-07-06T04:38:08.533Z,77
2018-07-06T04:38:28.699Z,77
2018-07-06T04:38:48.886Z,76.7
2018-07-06T04:39:09.024Z,76.5
2018-07-06T04:39:29.173Z,76.5
2018-07-06T04:39:49.328Z,76.5
2018-07-06T04:40:09.461Z,76.5
2018-07-06T04:40:29.617Z,76.9
2018-07-06T04:40:49.791Z,77.4
2018-07-06T04:41:09.950Z,77.7
2018-07-06T04:41:30.125Z,77.7
2018-07-06T04:41:50.278Z,77.6
2018-07-06T04:42:10.405Z,76.6
2018-07-06T04:42:30.587Z,76.3
2018-07-06T04:42:50.751Z,76.6
2018-07-06T04:43:10.919Z,77
2018-07-06T04:43:31.088Z,76.4
2018-07-06T04:43:51.244Z,76.5
2018-07-06T04:44:11.424Z,76.5
2018-07-06T04:44:31.569Z,76.8
2018-07-06T04:44:51.732Z,77.7
2018-07-06T04:45:11.876Z,77.3
2018-07-06T04:45:32.033Z,76.5
2018-07-06T04:45:52.191Z,76.5
2018-07-06T04:46:12.367Z,76.5
2018-07-06T04:46:32.521Z,77.1
2018-07-06T04:46:52.687Z,77.3
2018-07-06T04:47:12.868Z,77.2
2018-07-06T04:47:33.034Z,77.5
2018-07-06T04:47:53.192Z,77.3
2018-07-06T04:48:13.365Z,76.9
2018-07-06T04:48:33.498Z,77.4
2018-07-06T04:48:53.670Z,76.9
2018-07-06T04:49:13.839Z,77.2
2018-07-06T04:49:33.984Z,76.8
2018-07-06T04:49:54.138Z,77
2018-07-06T04:50:14.295Z,76.9
2018-07-06T04:50:34.450Z,77
2018-07-06T04:50:54.683Z,77.2
2018-07-06T04:51:14.803Z,76.9
2018-07-06T04:51:34.983Z,77.3
2018-07-06T04:51:55.150Z,77.2
2018-07-06T04:52:15.311Z,77.1
2018-07-06T04:52:35.479Z,76.7
2018-07-06T04:52:55.659Z,76.2
2018-07-06T04:53:15.819Z,76.4
2018-07-06T04:53:35.989Z,76.4
2018-07-06T04:53:56.147Z,76.6
2018-07-06T04:54:16.321Z,76.7
2018-07-06T04:54:36.479Z,77
2018-07-06T04:54:56.665Z,77.4
2018-07-06T04:55:16.833Z,76.9
2018-07-06T04:55:36.983Z,77
2018-07-06T04:55:57.125Z,77.2
2018-07-06T04:56:17.279Z,76.6
2018-07-06T04:56:37.435Z,76.6
2018-07-06T04:56:57.598Z,76.6
2018-07-06T04:57:17.754Z,76.1
2018-07-06T04:57:37.930Z,76.2
2018-07-06T04:57:58.081Z,76.6
2018-07-06T04:58:18.247Z,76.9
2018-07-06T04:58:38.412Z,76.1
2018-07-06T04:58:58.575Z,76.4
2018-07-06T04:59:18.734Z,76.2
2018-07-06T04:59:38.893Z,76.2
2018-07-06T04:59:59.139Z,76.6
2018-07-06T05:00:19.203Z,76.5
2018-07-06T05:00:39.368Z,76.4
2018-07-06T05:00:59.534Z,76.9
2018-07-06T05:01:19.700Z,76.9
2018-07-06T05:01:39.847Z,76.9
2018-07-06T05:01:59.989Z,77.1
2018-07-06T05:02:20.137Z,76.7
2018-07-06T05:02:40.312Z,77.1
2018-07-06T05:03:00.472Z,77.4
2018-07-06T05:03:20.635Z,77.5
2018-07-06T05:03:40.788Z,76.8
2018-07-06T05:04:00.956Z,76.4
2018-07-06T05:04:21.109Z,76.5
2018-07-06T05:04:41.308Z,76.7
2018-07-06T05:05:01.489Z,76.3
2018-07-06T05:05:21.723Z,76.6
2018-07-06T05:05:41.871Z,76.4
2018-07-06T05:06:02.045Z,76.4
2018-07-06T05:06:22.192Z,76.4
2018-07-06T05:06:42.355Z,76.7
2018-07-06T05:07:02.558Z,77
2018-07-06T05:07:22.727Z,76.6
2018-07-06T05:07:42.903Z,76.9
2018-07-06T05:08:03.023Z,76.5
2018-07-06T05:08:23.177Z,76.2
2018-07-06T05:08:43.339Z,76.4
2018-07-06T05:09:03.490Z,76.2
2018-07-06T05:09:23.667Z,76.6
2018-07-06T05:09:43.779Z,76.1
2018-07-06T05:10:03.927Z,76.3
2018-07-06T05:10:24.092Z,76.3
2018-07-06T05:10:44.248Z,76.4
2018-07-06T05:11:04.396Z,76.6
2018-07-06T05:11:24.553Z,76.9
2018-07-06T05:11:44.696Z,76.6
2018-07-06T05:12:04.842Z,77
2018-07-06T05:12:24.994Z,77
2018-07-06T05:12:45.144Z,76.8
2018-07-06T05:13:05.295Z,77.1
2018-07-06T05:13:25.511Z,76.6
2018-07-06T05:13:45.677Z,77.1
2018-07-06T05:14:05.821Z,77.2
2018-07-06T05:14:25.980Z,77
2018-07-06T05:14:46.143Z,77
2018-07-06T05:15:06.311Z,76.6
2018-07-06T05:15:26.462Z,76.7
2018-07-06T05:15:46.629Z,76.8
2018-07-06T05:16:06.784Z,76
2018-07-06T05:16:26.950Z,76.4
2018-07-06T05:16:47.389Z,76.3
2018-07-06T05:17:07.726Z,76.3
2018-07-06T05:17:27.892Z,76.1
2018-07-06T05:17:48.032Z,76.1
2018-07-06T05:18:08.184Z,75.7
2018-07-06T05:18:28.347Z,76
2018-07-06T05:18:48.509Z,75.7
2018-07-06T05:19:08.689Z,75.8
2018-07-06T05:19:28.821Z,76.1
2018-07-06T05:19:48.984Z,75.5
2018-07-06T05:20:09.170Z,75.1
2018-07-06T05:20:29.318Z,75.4
2018-07-06T05:20:49.471Z,75.2
2018-07-06T05:21:09.614Z,75.3
2018-07-06T05:21:29.818Z,75.6
2018-07-06T05:21:49.989Z,74.7
2018-07-06T05:22:10.169Z,74.3
2018-07-06T05:22:30.375Z,75.2
2018-07-06T05:22:50.503Z,75.1
2018-07-06T05:23:10.661Z,75.4
2018-07-06T05:23:30.824Z,75.7
2018-07-06T05:23:51.001Z,74.8
2018-07-06T05:24:11.154Z,74.9
2018-07-06T05:24:31.325Z,75.2
2018-07-06T05:24:51.492Z,75
2018-07-06T05:25:11.636Z,75.7
2018-07-06T05:25:31.916Z,75.7
2018-07-06T05:25:52.092Z,75.9
2018-07-06T05:26:12.230Z,75
2018-07-06T05:26:32.389Z,75.5
2018-07-06T05:26:52.548Z,75.7
2018-07-06T05:27:12.695Z,75.7
2018-07-06T05:27:32.860Z,75.6
2018-07-06T05:27:53.027Z,75.2
2018-07-06T05:28:13.191Z,75.4
2018-07-06T05:28:33.353Z,75.7
2018-07-06T05:28:53.512Z,76
2018-07-06T05:29:13.681Z,75.5
2018-07-06T05:29:33.849Z,75.6
2018-07-06T05:29:54.032Z,75.7
2018-07-06T05:30:14.180Z,75.5
2018-07-06T05:30:34.356Z,75.1
2018-07-06T05:30:54.527Z,75.1
2018-07-06T05:31:14.709Z,75.1
2018-07-06T05:31:34.882Z,75.3
2018-07-06T05:31:55.050Z,74.9
2018-07-06T05:32:15.208Z,75.5
2018-07-06T05:32:35.380Z,74.2
2018-07-06T05:32:55.536Z,74.9
2018-07-06T05:33:15.710Z,75.5
2018-07-06T05:33:35.919Z,75.2
2018-07-06T05:33:56.275Z,74.3
2018-07-06T05:34:16.438Z,74.8
2018-07-06T05:34:36.610Z,73.3
2018-07-06T05:34:56.771Z,74.2
2018-07-06T05:35:16.955Z,73.3
2018-07-06T05:35:37.129Z,73.5
2018-07-06T05:35:57.277Z,74
2018-07-06T05:36:17.434Z,74.8
2018-07-06T05:36:37.547Z,74.8
2018-07-06T05:36:57.712Z,74.3
2018-07-06T05:37:17.892Z,73.7
2018-07-06T05:37:38.037Z,74
2018-07-06T05:37:58.306Z,74.6
2018-07-06T05:38:18.462Z,73.8
2018-07-06T05:38:38.640Z,73.9
2018-07-06T05:38:58.792Z,73.5
2018-07-06T05:39:18.968Z,73.9
2018-07-06T05:39:39.117Z,74
2018-07-06T05:39:59.270Z,74
2018-07-06T05:40:19.405Z,73.4
2018-07-06T05:40:39.572Z,73.5
2018-07-06T05:40:59.730Z,73.5
2018-07-06T05:41:19.896Z,73.5
2018-07-06T05:41:40.053Z,73.9
2018-07-06T05:42:00.162Z,73.8
2018-07-06T05:42:20.327Z,73.2
2018-07-06T05:42:40.483Z,73.4
2018-07-06T05:43:00.628Z,73.6
2018-07-06T05:43:20.766Z,73.4
2018-07-06T05:43:40.914Z,73.8
2018-07-06T05:44:01.055Z,73.4
2018-07-06T05:44:21.293Z,73.7
2018-07-06T05:44:41.423Z,73.5
2018-07-06T05:45:01.594Z,73.8
2018-07-06T05:45:21.765Z,72.9
2018-07-06T05:45:41.932Z,72.8
2018-07-06T05:46:02.090Z,72.7
2018-07-06T05:46:22.227Z,73.2
2018-07-06T05:46:42.384Z,73.5
2018-07-06T05:47:02.648Z,74.1
2018-07-06T05:47:22.846Z,74.4
2018-07-06T05:47:43.007Z,74.6
2018-07-06T05:48:03.425Z,74.5
2018-07-06T05:48:23.546Z,74.2
2018-07-06T05:48:43.722Z,73.6
2018-07-06T05:49:03.882Z,73.5
2018-07-06T05:49:24.033Z,73.6
2018-07-06T05:49:44.250Z,74.4
2018-07-06T05:50:04.457Z,74.6
2018-07-06T05:50:24.619Z,74.9
2018-07-06T05:50:44.824Z,74.6
2018-07-06T05:51:05.040Z,74.6
2018-07-06T05:51:25.260Z,74.8
2018-07-06T05:51:45.408Z,74.7
2018-07-06T05:52:05.562Z,74.4
2018-07-06T05:52:25.709Z,73.4
2018-07-06T05:52:45.867Z,73.2
2018-07-06T05:53:06.091Z,73.1
2018-07-06T05:53:26.251Z,73.7
2018-07-06T05:53:46.439Z,73.4
2018-07-06T05:54:06.684Z,73.5
2018-07-06T05:54:26.890Z,73.7
2018-07-06T05:54:47.058Z,73.3
2018-07-06T05:55:07.239Z,73.9
2018-07-06T05:55:27.417Z,73.4
2018-07-06T05:55:47.639Z,73.2
2018-07-06T05:56:07.852Z,73.9
2018-07-06T05:56:27.994Z,74
2018-07-06T05:56:48.135Z,74
2018-07-06T05:57:08.300Z,73.3
2018-07-06T05:57:28.537Z,72.7
2018-07-06T05:57:48.755Z,72.7
2018-07-06T05:58:08.931Z,72.3
2018-07-06T05:58:29.165Z,72.6
2018-07-06T05:58:49.415Z,73.4
2018-07-06T05:59:09.626Z,73
2018-07-06T05:59:29.791Z,73.2
2018-07-06T05:59:50.000Z,73.5
2018-07-06T06:00:10.244Z,73.3
2018-07-06T06:00:30.448Z,72.8
2018-07-06T06:00:50.615Z,73.2
2018-07-06T06:01:10.787Z,73
2018-07-06T06:01:30.960Z,72.7
2018-07-06T06:01:51.127Z,73.4
2018-07-06T06:02:11.274Z,73.2
2018-07-06T06:02:31.418Z,73.8
2018-07-06T06:02:51.573Z,73.6
2018-07-06T06:03:11.781Z,73.2
2018-07-06T06:03:32.039Z,73.6
2018-07-06T06:03:52.466Z,72.7
2018-07-06T06:04:12.633Z,72.5
2018-07-06T06:04:32.815Z,73.1
2018-07-06T06:04:53.014Z,73.3
2018-07-06T06:05:13.189Z,73
2018-07-06T06:05:33.395Z,73.2
2018-07-06T06:05:53.592Z,72.9
2018-07-06T06:06:13.842Z,73.7
2018-07-06T06:06:33.997Z,73.7
2018-07-06T06:06:54.162Z,73.6
2018-07-06T06:07:14.348Z,73.6
2018-07-06T06:07:34.557Z,73.7
2018-07-06T06:07:54.774Z,73.4
2018-07-06T06:08:15.045Z,73
2018-07-06T06:08:35.197Z,72.7
2018-07-06T06:08:55.389Z,73.1
2018-07-06T06:09:15.575Z,72.6
2018-07-06T06:09:35.761Z,72.9
2018-07-06T06:09:55.919Z,73.4
2018-07-06T06:10:16.123Z,73.6
2018-07-06T06:10:36.349Z,73.6
2018-07-06T06:10:56.536Z,73.6
2018-07-06T06:11:16.731Z,73.6
2018-07-06T06:11:36.930Z,73
2018-07-06T06:11:57.164Z,72.7
2018-07-06T06:12:17.411Z,72.7
2018-07-06T06:12:37.553Z,73.1
2018-07-06T06:12:57.740Z,73
2018-07-06T06:13:17.977Z,72.6
2018-07-06T06:13:38.172Z,72.5
2018-07-06T06:13:58.362Z,71.5
2018-07-06T06:14:18.531Z,71.7
2018-07-06T06:14:38.701Z,72.1
2018-07-06T06:14:58.882Z,72.2
2018-07-06T06:15:19.123Z,72.4
2018-07-06T06:15:39.316Z,72.7
2018-07-06T06:15:59.535Z,72.2
2018-07-06T06:16:19.685Z,72.1
2018-07-06T06:16:39.862Z,72.1
2018-07-06T06:17:00.020Z,73.5
2018-07-06T06:17:20.180Z,73.4
2018-07-06T06:17:40.348Z,72.9
2018-07-06T06:18:00.508Z,72.6
2018-07-06T06:18:20.736Z,73.1
2018-07-06T06:18:41.092Z,73.2
2018-07-06T06:19:01.331Z,71.9
2018-07-06T06:19:21.465Z,72.1
2018-07-06T06:19:41.623Z,72.3
2018-07-06T06:20:01.819Z,71.9
2018-07-06T06:20:22.018Z,71.7
2018-07-06T06:20:42.210Z,71.8
2018-07-06T06:21:02.396Z,72.4
2018-07-06T06:21:22.629Z,72.4
2018-07-06T06:21:42.816Z,72.3
2018-07-06T06:22:03.000Z,72.9
2018-07-06T06:22:23.140Z,73.1
2018-07-06T06:22:43.327Z,72.9
2018-07-06T06:23:03.607Z,73.6
2018-07-06T06:23:23.797Z,73.6
2018-07-06T06:23:43.966Z,73.1
2018-07-06T06:24:04.226Z,73.2
2018-07-06T06:24:24.422Z,73.7
2018-07-06T06:24:44.593Z,73.4
2018-07-06T06:25:04.897Z,73.2
2018-07-06T06:25:25.086Z,73.2
2018-07-06T06:25:45.304Z,72.1
2018-07-06T06:26:05.498Z,71.6
2018-07-06T06:26:25.684Z,72
2018-07-06T06:26:45.847Z,71.7
2018-07-06T06:27:05.990Z,72.2
2018-07-06T06:27:26.182Z,72.7
2018-07-06T06:27:46.418Z,73.2
2018-07-06T06:28:06.552Z,73
2018-07-06T06:28:26.781Z,72.4
2018-07-06T06:28:46.991Z,71.9
2018-07-06T06:29:07.344Z,72
2018-07-06T06:29:27.510Z,72.2
2018-07-06T06:29:47.709Z,71.2
2018-07-06T06:30:07.914Z,71.1
2018-07-06T06:30:28.257Z,71.2
2018-07-06T06:30:48.439Z,71.3
2018-07-06T06:31:08.613Z,71.6
2018-07-06T06:31:28.807Z,72.1
2018-07-06T06:31:48.985Z,71
2018-07-06T06:32:09.204Z,71
2018-07-06T06:32:29.385Z,71.2
2018-07-06T06:32:49.590Z,70.6
2018-07-06T06:33:09.996Z,70.5
2018-07-06T06:33:30.508Z,70.8
2018-07-06T06:33:50.746Z,71
2018-07-06T06:34:10.764Z,71
2018-07-06T06:34:30.930Z,71
2018-07-06T06:34:51.128Z,70.9
2018-07-06T06:35:11.296Z,70.5
2018-07-06T06:35:31.499Z,70.8
2018-07-06T06:35:51.662Z,71
2018-07-06T06:36:11.835Z,71.6
2018-07-06T06:36:31.993Z,71.6
2018-07-06T06:36:52.228Z,70.9
2018-07-06T06:37:12.408Z,70.5
2018-07-06T06:37:32.575Z,70.6
2018-07-06T06:37:52.712Z,70.5
2018-07-06T06:38:12.859Z,70.5
2018-07-06T06:38:33.074Z,69.9
2018-07-06T06:38:53.269Z,69.7
2018-07-06T06:39:13.439Z,69.7
2018-07-06T06:39:33.763Z,70.3
2018-07-06T06:39:53.866Z,70.1
2018-07-06T06:40:14.063Z,70.2
2018-07-06T06:40:34.223Z,70
2018-07-06T06:40:54.416Z,70.7
2018-07-06T06:41:14.682Z,71.3
2018-07-06T06:41:34.877Z,70.6
2018-07-06T06:41:55.090Z,71
2018-07-06T06:42:15.263Z,71.4
2018-07-06T06:42:35.450Z,71.5
2018-07-06T06:42:55.621Z,71.7
2018-07-06T06:43:15.786Z,72.1
2018-07-06T06:43:35.982Z,72
2018-07-06T06:43:56.161Z,71.3
2018-07-06T06:44:16.359Z,70.8
2018-07-06T06:44:36.596Z,71.3
2018-07-06T06:44:56.769Z,70.8
2018-07-06T06:45:16.935Z,70.2
2018-07-06T06:45:37.086Z,71
2018-07-06T06:45:57.243Z,71.5
2018-07-06T06:46:17.487Z,71.9
2018-07-06T06:46:37.790Z,71.6
2018-07-06T06:46:57.907Z,70.6
2018-07-06T06:47:18.161Z,70.7
2018-07-06T06:47:38.379Z,71.3
2018-07-06T06:47:58.524Z,71.8
2018-07-06T06:48:18.686Z,72.1
2018-07-06T06:48:38.871Z,71.2
2018-07-06T06:48:59.073Z,71.5
2018-07-06T06:49:19.243Z,71.4
2018-07-06T06:49:39.478Z,71.2
2018-07-06T06:49:59.646Z,71.1
2018-07-06T06:50:19.819Z,72.2
2018-07-06T06:50:40.081Z,71.7
2018-07-06T06:51:00.267Z,72
2018-07-06T06:51:20.455Z,72
2018-07-06T06:51:40.627Z,71
2018-07-06T06:52:00.798Z,70.6
2018-07-06T06:52:20.944Z,71
2018-07-06T06:52:41.085Z,71.8
2018-07-06T06:53:01.330Z,72.2
2018-07-06T06:53:21.482Z,71.6
2018-07-06T06:53:41.664Z,71.7
2018-07-06T06:54:01.858Z,71.1
2018-07-06T06:54:22.093Z,71.6
2018-07-06T06:54:42.261Z,71.6
2018-07-06T06:55:02.425Z,72.1
2018-07-06T06:55:22.560Z,71.5
2018-07-06T06:55:42.802Z,71.3
2018-07-06T06:56:02.983Z,72.1
2018-07-06T06:56:23.170Z,71.4
2018-07-06T06:56:43.357Z,72.1
2018-07-06T06:57:03.606Z,72.1
2018-07-06T06:57:23.782Z,72
2018-07-06T06:57:43.961Z,72.2
2018-07-06T06:58:04.132Z,72.5
2018-07-06T06:58:24.313Z,72.2
2018-07-06T06:58:44.544Z,73.2
2018-07-06T06:59:04.751Z,73
2018-07-06T06:59:24.896Z,72.9
2018-07-06T06:59:45.097Z,73.3
2018-07-06T07:00:05.239Z,73.1
2018-07-06T07:00:27.534Z,72.8
2018-07-06T07:00:45.685Z,72.3
2018-07-06T07:01:05.953Z,72.1
2018-07-06T07:01:26.073Z,71.9
2018-07-06T07:01:46.248Z,71.8
2018-07-06T07:02:06.424Z,71.2
2018-07-06T07:02:26.629Z,71.5
2018-07-06T07:02:46.753Z,71.1
2018-07-06T07:03:06.938Z,71.1
2018-07-06T07:03:27.136Z,70.8
2018-07-06T07:03:47.343Z,70.5
2018-07-06T07:04:07.515Z,71.4
2018-07-06T07:04:27.643Z,71.3
2018-07-06T07:04:47.820Z,70.9
2018-07-06T07:05:08.084Z,71
2018-07-06T07:05:28.266Z,70.6
2018-07-06T07:05:48.433Z,71
2018-07-06T07:06:08.648Z,71.7
2018-07-06T07:06:28.852Z,71.1
2018-07-06T07:06:49.108Z,71.4
2018-07-06T07:07:09.260Z,71.4
2018-07-06T07:07:29.472Z,71.2
2018-07-06T07:07:49.680Z,71.1
2018-07-06T07:08:09.801Z,70.2
2018-07-06T07:08:30.007Z,70.7
2018-07-06T07:08:50.177Z,70.4
2018-07-06T07:09:10.311Z,70.6
2018-07-06T07:09:30.503Z,70.6
2018-07-06T07:09:50.703Z,70.7
2018-07-06T07:10:10.827Z,70.7
2018-07-06T07:10:31.057Z,70.1
2018-07-06T07:10:51.254Z,70.5
2018-07-06T07:11:11.506Z,70.8
2018-07-06T07:11:31.700Z,69.9
2018-07-06T07:11:51.869Z,70.2
2018-07-06T07:12:12.045Z,70.7
2018-07-06T07:12:32.232Z,70.7
2018-07-06T07:12:52.474Z,70.6
2018-07-06T07:13:12.659Z,70.3
2018-07-06T07:13:32.855Z,70.2
2018-07-06T07:13:53.166Z,69.7
2018-07-06T07:14:13.356Z,69.5
2018-07-06T07:14:33.521Z,70
2018-07-06T07:14:53.874Z,70.5
2018-07-06T07:15:14.077Z,70.7
2018-07-06T07:15:34.286Z,70.1
2018-07-06T07:15:54.492Z,70.1
2018-07-06T07:16:14.623Z,69.7
2018-07-06T07:16:34.796Z,69.5
2018-07-06T07:16:54.956Z,70
2018-07-06T07:17:15.137Z,69.8
2018-07-06T07:17:35.314Z,69.5
2018-07-06T07:17:55.491Z,69.7
2018-07-06T07:18:15.635Z,70
2018-07-06T07:18:35.865Z,69.8
2018-07-06T07:18:56.211Z,69.9
2018-07-06T07:19:16.405Z,70.5
2018-07-06T07:19:36.569Z,70.9
2018-07-06T07:19:56.825Z,70.3
2018-07-06T07:20:17.165Z,70.1
2018-07-06T07:20:37.376Z,70.3
2018-07-06T07:20:57.546Z,69.8
2018-07-06T07:21:17.771Z,69.9
2018-07-06T07:21:38.019Z,70.1
2018-07-06T07:21:58.177Z,70.5
2018-07-06T07:22:18.314Z,70.3
2018-07-06T07:22:38.468Z,70.1
2018-07-06T07:22:58.595Z,70.2
2018-07-06T07:23:18.771Z,69.3
2018-07-06T07:23:38.990Z,69.2
2018-07-06T07:23:59.138Z,69.3
2018-07-06T07:24:19.377Z,70.2
2018-07-06T07:24:39.529Z,70.5
2018-07-06T07:24:59.726Z,70.2
2018-07-06T07:25:19.888Z,70
2018-07-06T07:25:40.085Z,71
2018-07-06T07:26:00.262Z,71.3
2018-07-06T07:26:20.455Z,71.5
2018-07-06T07:26:40.608Z,71.6
2018-07-06T07:27:00.791Z,71.2
2018-07-06T07:27:20.954Z,71.6
2018-07-06T07:27:41.137Z,71.2
2018-07-06T07:28:01.291Z,70.9
2018-07-06T07:28:21.448Z,70.4
2018-07-06T07:28:41.620Z,70.8
2018-07-06T07:29:01.799Z,70.7
2018-07-06T07:29:22.021Z,70.2
2018-07-06T07:29:42.198Z,71.3
2018-07-06T07:30:02.480Z,71.8
2018-07-06T07:30:22.622Z,71.9
2018-07-06T07:30:42.828Z,71.7
2018-07-06T07:31:02.981Z,71.4
2018-07-06T07:31:23.117Z,71.8
2018-07-06T07:31:43.324Z,71
2018-07-06T07:32:03.478Z,70.6
2018-07-06T07:32:23.665Z,69.7
2018-07-06T07:32:43.856Z,69.3
2018-07-06T07:33:04.041Z,69.6
2018-07-06T07:33:24.219Z,69.9
2018-07-06T07:33:44.373Z,71
2018-07-06T07:34:04.604Z,71
2018-07-06T07:34:24.760Z,70.9
2018-07-06T07:34:44.941Z,70.6
2018-07-06T07:35:05.170Z,70.3
2018-07-06T07:35:25.338Z,70.8
2018-07-06T07:35:45.509Z,70.5
2018-07-06T07:36:05.658Z,70.9
2018-07-06T07:36:25.818Z,71.3
2018-07-06T07:36:45.984Z,70.3
2018-07-06T07:37:06.204Z,70
2018-07-06T07:37:26.360Z,70.5
2018-07-06T07:37:46.498Z,70.6
2018-07-06T07:38:06.659Z,71.1
2018-07-06T07:38:26.802Z,71
2018-07-06T07:38:47.019Z,71.3
2018-07-06T07:39:07.329Z,71.4
2018-07-06T07:39:27.501Z,71.6
2018-07-06T07:39:47.519Z,70.7
2018-07-06T07:40:07.713Z,70.1
2018-07-06T07:40:27.843Z,70
2018-07-06T07:40:48.038Z,70.1
2018-07-06T07:41:08.173Z,70.1
2018-07-06T07:41:28.389Z,70.1
2018-07-06T07:41:48.555Z,70.2
2018-07-06T07:42:08.716Z,70.4
2018-07-06T07:42:28.913Z,71
2018-07-06T07:42:49.065Z,71.4
2018-07-06T07:43:09.226Z,71.2
2018-07-06T07:43:29.372Z,70.9
2018-07-06T07:43:49.546Z,70.6
2018-07-06T07:44:09.696Z,71.5
2018-07-06T07:44:29.859Z,71.5
2018-07-06T07:44:50.031Z,71.3
2018-07-06T07:45:10.192Z,71.2
2018-07-06T07:45:30.331Z,71
2018-07-06T07:45:50.493Z,71
2018-07-06T07:46:10.656Z,71.3
2018-07-06T07:46:30.904Z,71.6
2018-07-06T07:46:50.978Z,71
2018-07-06T07:47:11.127Z,71.3
2018-07-06T07:47:31.355Z,71.9
2018-07-06T07:47:51.533Z,71.9
2018-07-06T07:48:11.718Z,72
2018-07-06T07:48:31.871Z,71.9
2018-07-06T07:48:52.024Z,72.2
2018-07-06T07:49:12.247Z,72.1
2018-07-06T07:49:32.431Z,72.2
2018-07-06T07:49:52.607Z,71.8
2018-07-06T07:50:12.774Z,71.2
2018-07-06T07:50:32.956Z,71.9
2018-07-06T07:50:53.138Z,72.4
2018-07-06T07:51:13.319Z,72
2018-07-06T07:51:33.480Z,71.9
2018-07-06T07:51:53.614Z,71.7
2018-07-06T07:52:13.814Z,71.8
2018-07-06T07:52:33.967Z,72.3
2018-07-06T07:52:54.150Z,72.7
2018-07-06T07:53:14.326Z,72.1
2018-07-06T07:53:34.457Z,72.5
2018-07-06T07:53:54.605Z,72.5
2018-07-06T07:54:14.787Z,72.5
2018-07-06T07:54:35.056Z,72.8
2018-07-06T07:54:55.165Z,73.3
2018-07-06T07:55:15.488Z,73.2
2018-07-06T07:55:35.677Z,72.3
2018-07-06T07:55:55.871Z,72
2018-07-06T07:56:16.038Z,72.1
2018-07-06T07:56:36.235Z,71.6
2018-07-06T07:56:56.380Z,71.7
2018-07-06T07:57:16.535Z,71.3
2018-07-06T07:57:36.665Z,71.4
2018-07-06T07:57:56.815Z,72.4
2018-07-06T07:58:16.984Z,72.3
2018-07-06T07:58:37.164Z,72.1
2018-07-06T07:58:57.330Z,72.4
2018-07-06T07:59:17.540Z,72.5
2018-07-06T07:59:37.670Z,73.4
2018-07-06T07:59:57.856Z,73.2
2018-07-06T08:00:18.034Z,72.8
2018-07-06T08:00:38.360Z,72.9
2018-07-06T08:00:58.860Z,72.9
2018-07-06T08:01:19.139Z,73.1
2018-07-06T08:01:39.361Z,73.5
2018-07-06T08:01:59.519Z,73.3
2018-07-06T08:02:19.666Z,73
2018-07-06T08:02:39.872Z,72.1
2018-07-06T08:03:00.073Z,72.7
2018-07-06T08:03:20.233Z,72.8
2018-07-06T08:03:40.411Z,72.2
2018-07-06T08:04:00.550Z,72.4
2018-07-06T08:04:20.710Z,72.2
2018-07-06T08:04:40.887Z,71.9
2018-07-06T08:05:01.052Z,71.5
2018-07-06T08:05:21.219Z,71.2
2018-07-06T08:05:41.363Z,71.8
2018-07-06T08:06:01.516Z,72.5
2018-07-06T08:06:21.688Z,72.5
2018-07-06T08:06:41.880Z,73
2018-07-06T08:07:02.042Z,72.9
2018-07-06T08:07:22.234Z,72.3
2018-07-06T08:07:42.443Z,71.6
2018-07-06T08:08:02.719Z,71.9
2018-07-06T08:08:22.873Z,72
2018-07-06T08:08:43.033Z,71.7
2018-07-06T08:09:03.201Z,71.5
2018-07-06T08:09:23.358Z,71.5
2018-07-06T08:09:43.509Z,71.7
2018-07-06T08:10:03.653Z,70.8
2018-07-06T08:10:23.803Z,70.9
2018-07-06T08:10:43.955Z,71.2
2018-07-06T08:11:04.145Z,70.9
2018-07-06T08:11:24.319Z,70.4
2018-07-06T08:11:44.475Z,70.4
2018-07-06T08:12:04.640Z,70.9
2018-07-06T08:12:24.798Z,71.1
2018-07-06T08:12:44.987Z,71.4
2018-07-06T08:13:05.138Z,70.7
2018-07-06T08:13:25.301Z,70.6
2018-07-06T08:13:45.535Z,70.3
2018-07-06T08:14:05.698Z,70.6
2018-07-06T08:14:25.867Z,70.7
2018-07-06T08:14:46.007Z,70.7
2018-07-06T08:15:06.169Z,69.7
2018-07-06T08:15:26.316Z,70
2018-07-06T08:15:46.469Z,69.3
2018-07-06T08:16:06.625Z,69.5
2018-07-06T08:16:26.765Z,69.6
2018-07-06T08:16:46.926Z,70.5
2018-07-06T08:17:07.071Z,70.5
2018-07-06T08:17:27.228Z,70.6
2018-07-06T08:17:47.425Z,70.1
2018-07-06T08:18:07.579Z,69.8
2018-07-06T08:18:27.841Z,69.4
2018-07-06T08:18:47.950Z,69.5
2018-07-06T08:19:08.112Z,69.2
2018-07-06T08:19:28.277Z,69.6
2018-07-06T08:19:48.462Z,69.7
2018-07-06T08:20:08.647Z,69.7
2018-07-06T08:20:28.762Z,69.2
2018-07-06T08:20:48.959Z,70.1
2018-07-06T08:21:09.109Z,69.3
2018-07-06T08:21:29.352Z,69.5
2018-07-06T08:21:49.442Z,69.3
2018-07-06T08:22:09.566Z,70.3
2018-07-06T08:22:29.763Z,70
2018-07-06T08:22:49.983Z,70.4
2018-07-06T08:23:10.118Z,70.3
2018-07-06T08:23:30.292Z,68.6
2018-07-06T08:23:50.468Z,68.9
2018-07-06T08:24:10.610Z,69.4
2018-07-06T08:24:30.774Z,69.4
2018-07-06T08:24:50.963Z,69.4
2018-07-06T08:25:11.136Z,69.6
2018-07-06T08:25:31.342Z,68.9
2018-07-06T08:25:51.479Z,70.2
2018-07-06T08:26:11.622Z,69.9
2018-07-06T08:26:31.793Z,69.3
2018-07-06T08:26:51.924Z,69.4
2018-07-06T08:27:12.111Z,70
2018-07-06T08:27:32.281Z,69.9
2018-07-06T08:27:52.442Z,69.7
2018-07-06T08:28:12.594Z,69.1
2018-07-06T08:28:32.736Z,69.2
2018-07-06T08:28:52.946Z,69.2
2018-07-06T08:29:13.098Z,70
2018-07-06T08:29:33.255Z,68.6
2018-07-06T08:29:53.405Z,68.9
2018-07-06T08:30:13.570Z,69.3
2018-07-06T08:30:33.747Z,69.7
2018-07-06T08:30:53.925Z,69.1
2018-07-06T08:31:14.083Z,68.7
2018-07-06T08:31:34.281Z,68.8
2018-07-06T08:31:54.617Z,69.2
2018-07-06T08:32:14.806Z,68.3
2018-07-06T08:32:34.958Z,68.1
2018-07-06T08:32:55.102Z,67.9
2018-07-06T08:33:15.241Z,67.5
2018-07-06T08:33:35.414Z,68.2
2018-07-06T08:33:55.602Z,68.2
2018-07-06T08:34:15.766Z,67.6
2018-07-06T08:34:35.944Z,67.6
2018-07-06T08:34:56.181Z,68.2
2018-07-06T08:35:16.324Z,68.8
2018-07-06T08:35:36.472Z,68.5
2018-07-06T08:35:56.595Z,68.6
2018-07-06T08:36:16.784Z,68.1
2018-07-06T08:36:36.934Z,68.1
2018-07-06T08:36:57.092Z,68.7
2018-07-06T08:37:17.256Z,69.2
2018-07-06T08:37:37.415Z,68.8
2018-07-06T08:37:57.557Z,68.7
2018-07-06T08:38:17.735Z,69.1
2018-07-06T08:38:38.012Z,68.9
2018-07-06T08:38:58.170Z,68.1
2018-07-06T08:39:18.334Z,67.6
2018-07-06T08:39:38.557Z,67
2018-07-06T08:39:58.749Z,67.7
2018-07-06T08:40:18.819Z,68
2018-07-06T08:40:38.978Z,68
2018-07-06T08:40:59.132Z,68.5
2018-07-06T08:41:19.633Z,68.9
2018-07-06T08:41:39.801Z,69
2018-07-06T08:41:59.994Z,68.4
2018-07-06T08:42:20.179Z,68.3
2018-07-06T08:42:40.339Z,68.1
2018-07-06T08:43:00.503Z,68.4
2018-07-06T08:43:21.306Z,68.2
2018-07-06T08:43:41.463Z,68.2
2018-07-06T08:44:01.624Z,68.7
2018-07-06T08:44:21.758Z,69.1
2018-07-06T08:44:41.950Z,69.4
2018-07-06T08:45:02.216Z,69.4
2018-07-06T08:45:22.240Z,68.7
2018-07-06T08:45:42.401Z,68.8
2018-07-06T08:46:02.549Z,68
2018-07-06T08:46:22.717Z,67.8
2018-07-06T08:46:44.058Z,68.3
2018-07-06T08:47:04.218Z,68.3
2018-07-06T08:47:24.364Z,68.6
2018-07-06T08:47:44.535Z,68.4
2018-07-06T08:48:04.702Z,68.2
2018-07-06T08:48:24.860Z,68.1
2018-07-06T08:48:45.024Z,68.1
2018-07-06T08:49:05.215Z,66.9
2018-07-06T08:49:25.436Z,66.3
2018-07-06T08:49:45.601Z,67
2018-07-06T08:50:05.761Z,66.9
2018-07-06T08:50:26.026Z,66.4
2018-07-06T08:50:46.176Z,67.7
2018-07-06T08:51:06.349Z,68.7
2018-07-06T08:51:26.495Z,70.1